RYR70P EDDK-LIME
Flight info
| Callsign | RYR70P |
|---|---|
| Flight time | N/A |
| Altitude | 34000 |
| Route | KUMIK1R KUMIK Y854 BOMBI DCT GIGET DCT ABUKA DCT KRH DCT NATOR DCT TRA DCT RIPUS DCT GERSA DCT SOSON DCT ODINA |
| Aircraft | B38M/M-SDE1FGHILORVWXY/HB1 |
Departure
| Time | 2026-04-23 13:19 |
|---|---|
| Airport | Cologne Bonn Airport (EDDK) |
Arrival
| Time | N/A |
|---|---|
| Airport | Il Caravaggio International Airport (LIME) |
| Time | Latitude | Longitude | Altitude | Speed | Heading |
|---|---|---|---|---|---|
| 2026-04-23 13:08 | 50.87767 | 7.12408 | 234 ft | 0 kts | 288° |
| 2026-04-23 13:09 | 50.87767 | 7.12412 | 234 ft | 3 kts | 288° |
| 2026-04-23 13:09 | 50.87756 | 7.12451 | 238 ft | 4 kts | 301° |
| 2026-04-23 13:09 | 50.87740 | 7.12484 | 239 ft | 4 kts | 319° |
| 2026-04-23 13:10 | 50.87718 | 7.12506 | 238 ft | 4 kts | 342° |
| 2026-04-23 13:10 | 50.87692 | 7.12511 | 238 ft | 4 kts | 11° |
| 2026-04-23 13:10 | 50.87683 | 7.12507 | 238 ft | 1 kts | 18° |
| 2026-04-23 13:12 | 50.87685 | 7.12508 | 238 ft | 1 kts | 18° |
| 2026-04-23 13:12 | 50.87715 | 7.12522 | 237 ft | 9 kts | 18° |
| 2026-04-23 13:13 | 50.87769 | 7.12644 | 235 ft | 20 kts | 86° |
| 2026-04-23 13:13 | 50.87668 | 7.12845 | 235 ft | 27 kts | 138° |
| 2026-04-23 13:13 | 50.87526 | 7.13049 | 235 ft | 28 kts | 137° |
| 2026-04-23 13:13 | 50.87378 | 7.13265 | 235 ft | 30 kts | 137° |
| 2026-04-23 13:14 | 50.87221 | 7.13491 | 238 ft | 30 kts | 138° |
| 2026-04-23 13:14 | 50.87067 | 7.13715 | 243 ft | 30 kts | 137° |
| 2026-04-23 13:14 | 50.86917 | 7.13931 | 253 ft | 28 kts | 137° |
| 2026-04-23 13:14 | 50.86775 | 7.14124 | 257 ft | 27 kts | 157° |
| 2026-04-23 13:15 | 50.86637 | 7.14277 | 264 ft | 24 kts | 137° |
| 2026-04-23 13:15 | 50.86512 | 7.14459 | 268 ft | 24 kts | 137° |
| 2026-04-23 13:15 | 50.86392 | 7.14633 | 275 ft | 24 kts | 138° |
| 2026-04-23 13:15 | 50.86250 | 7.14837 | 283 ft | 31 kts | 137° |
| 2026-04-23 13:16 | 50.86073 | 7.15094 | 293 ft | 39 kts | 137° |
| 2026-04-23 13:16 | 50.85880 | 7.15371 | 301 ft | 20 kts | 137° |
| 2026-04-23 13:16 | 50.85755 | 7.15555 | 305 ft | 29 kts | 137° |
| 2026-04-23 13:16 | 50.85581 | 7.15804 | 307 ft | 38 kts | 138° |
| 2026-04-23 13:17 | 50.85492 | 7.16010 | 312 ft | 18 kts | 55° |
| 2026-04-23 13:17 | 50.85573 | 7.16155 | 311 ft | 0 kts | 46° |
| 2026-04-23 13:18 | 50.85611 | 7.16217 | 312 ft | 16 kts | 46° |
| 2026-04-23 13:18 | 50.85725 | 7.16274 | 311 ft | 24 kts | 320° |
| 2026-04-23 13:18 | 50.86060 | 7.15786 | 298 ft | 108 kts | 317° |
| 2026-04-23 13:18 | 50.86788 | 7.14725 | 334 ft | 160 kts | 316° |
| 2026-04-23 13:19 | 50.87699 | 7.13460 | 1074 ft | 182 kts | 318° |
| 2026-04-23 13:19 | 50.88668 | 7.12088 | 2278 ft | 192 kts | 319° |
| 2026-04-23 13:19 | 50.89802 | 7.10915 | 3244 ft | 204 kts | 341° |
| 2026-04-23 13:19 | 50.91297 | 7.10835 | 3866 ft | 226 kts | 19° |
| 2026-04-23 13:20 | 50.92586 | 7.12142 | 5166 ft | 221 kts | 39° |
| 2026-04-23 13:20 | 50.93516 | 7.14026 | 6091 ft | 229 kts | 58° |
| 2026-04-23 13:20 | 50.94268 | 7.16362 | 6826 ft | 246 kts | 60° |
| 2026-04-23 13:20 | 50.95031 | 7.18770 | 7796 ft | 248 kts | 60° |
| 2026-04-23 13:21 | 50.95814 | 7.21245 | 8696 ft | 256 kts | 60° |
| 2026-04-23 13:21 | 50.96640 | 7.23856 | 9364 ft | 274 kts | 61° |
| 2026-04-23 13:21 | 50.97517 | 7.26622 | 10235 ft | 282 kts | 61° |
| 2026-04-23 13:21 | 50.98410 | 7.29447 | 11008 ft | 294 kts | 60° |
| 2026-04-23 13:22 | 50.99360 | 7.32451 | 11485 ft | 315 kts | 61° |
| 2026-04-23 13:22 | 51.00369 | 7.35654 | 11910 ft | 335 kts | 61° |
| 2026-04-23 13:22 | 51.01370 | 7.39095 | 12395 ft | 353 kts | 70° |
| 2026-04-23 13:22 | 51.01673 | 7.43002 | 13152 ft | 363 kts | 92° |
| 2026-04-23 13:23 | 51.01139 | 7.46954 | 13983 ft | 370 kts | 105° |
| 2026-04-23 13:23 | 51.00382 | 7.50880 | 14708 ft | 374 kts | 105° |
| 2026-04-23 13:23 | 50.99613 | 7.54855 | 15447 ft | 378 kts | 105° |
| 2026-04-23 13:23 | 50.98832 | 7.58852 | 16152 ft | 381 kts | 105° |
| 2026-04-23 13:24 | 50.98040 | 7.62888 | 16868 ft | 384 kts | 105° |
| 2026-04-23 13:24 | 50.97238 | 7.66958 | 17564 ft | 388 kts | 105° |
| 2026-04-23 13:24 | 50.96428 | 7.71063 | 18264 ft | 391 kts | 105° |
| 2026-04-23 13:24 | 50.95608 | 7.75210 | 18890 ft | 395 kts | 105° |
| 2026-04-23 13:25 | 50.94781 | 7.79381 | 19507 ft | 397 kts | 105° |
| 2026-04-23 13:25 | 50.93621 | 7.83374 | 20132 ft | 402 kts | 121° |
| 2026-04-23 13:25 | 50.92111 | 7.87032 | 20768 ft | 403 kts | 121° |
| 2026-04-23 13:25 | 50.90575 | 7.90779 | 21367 ft | 405 kts | 121° |
| 2026-04-23 13:26 | 50.89021 | 7.94527 | 21975 ft | 407 kts | 121° |
| 2026-04-23 13:26 | 50.87455 | 7.98277 | 22569 ft | 409 kts | 122° |
| 2026-04-23 13:26 | 50.85875 | 8.02052 | 23148 ft | 412 kts | 122° |
| 2026-04-23 13:26 | 50.84214 | 8.05761 | 23703 ft | 415 kts | 130° |
| 2026-04-23 13:27 | 50.82005 | 8.08715 | 24236 ft | 420 kts | 145° |
| 2026-04-23 13:27 | 50.79513 | 8.11161 | 24637 ft | 423 kts | 146° |
| 2026-04-23 13:27 | 50.76996 | 8.13609 | 25072 ft | 425 kts | 146° |
| 2026-04-23 13:27 | 50.74457 | 8.16042 | 25528 ft | 427 kts | 146° |
| 2026-04-23 13:28 | 50.71903 | 8.18468 | 25957 ft | 430 kts | 146° |
| 2026-04-23 13:28 | 50.70202 | 8.20077 | 26241 ft | 431 kts | 146° |
| 2026-04-23 13:28 | 50.67623 | 8.22511 | 26657 ft | 434 kts | 146° |
| 2026-04-23 13:28 | 50.65019 | 8.24965 | 27078 ft | 436 kts | 146° |
| 2026-04-23 13:29 | 50.62414 | 8.27416 | 27474 ft | 438 kts | 146° |
| 2026-04-23 13:29 | 50.59791 | 8.29881 | 27877 ft | 440 kts | 146° |
| 2026-04-23 13:29 | 50.57155 | 8.32354 | 28270 ft | 442 kts | 146° |
| 2026-04-23 13:29 | 50.54505 | 8.34838 | 28650 ft | 444 kts | 146° |
| 2026-04-23 13:30 | 50.51842 | 8.37330 | 29031 ft | 446 kts | 146° |
| 2026-04-23 13:30 | 50.49162 | 8.39836 | 29399 ft | 449 kts | 146° |
| 2026-04-23 13:30 | 50.46474 | 8.42344 | 29774 ft | 451 kts | 146° |
| 2026-04-23 13:30 | 50.43762 | 8.44873 | 30131 ft | 453 kts | 146° |
| 2026-04-23 13:31 | 50.41075 | 8.47374 | 30492 ft | 454 kts | 146° |
| 2026-04-23 13:31 | 50.38370 | 8.49888 | 30912 ft | 453 kts | 146° |
| 2026-04-23 13:31 | 50.35658 | 8.52407 | 31351 ft | 451 kts | 146° |
| 2026-04-23 13:31 | 50.32958 | 8.54910 | 31791 ft | 449 kts | 146° |
| 2026-04-23 13:32 | 50.30267 | 8.57401 | 32215 ft | 448 kts | 146° |
| 2026-04-23 13:32 | 50.27601 | 8.59867 | 32636 ft | 446 kts | 146° |
| 2026-04-23 13:32 | 50.24921 | 8.62342 | 33051 ft | 445 kts | 145° |
| 2026-04-23 13:32 | 50.22237 | 8.64817 | 33325 ft | 446 kts | 145° |
| 2026-04-23 13:33 | 50.19568 | 8.67275 | 33338 ft | 444 kts | 145° |
| 2026-04-23 13:33 | 50.14262 | 8.72154 | 33325 ft | 442 kts | 145° |
| 2026-04-23 13:34 | 50.08953 | 8.77005 | 33325 ft | 444 kts | 147° |
| 2026-04-23 13:34 | 50.06054 | 8.78749 | 33315 ft | 452 kts | 163° |
| 2026-04-23 13:34 | 50.02894 | 8.79182 | 33323 ft | 462 kts | 179° |
| 2026-04-23 13:35 | 49.96505 | 8.78065 | 33322 ft | 467 kts | 182° |
| 2026-04-23 13:35 | 49.90056 | 8.76778 | 33323 ft | 467 kts | 183° |
| 2026-04-23 13:36 | 49.83585 | 8.75443 | 33326 ft | 467 kts | 183° |
| 2026-04-23 13:36 | 49.77143 | 8.74114 | 33337 ft | 467 kts | 183° |
| 2026-04-23 13:37 | 49.70693 | 8.72787 | 33340 ft | 467 kts | 183° |
| 2026-04-23 13:37 | 49.64244 | 8.71484 | 33343 ft | 467 kts | 183° |
| 2026-04-23 13:38 | 49.57838 | 8.70191 | 33346 ft | 467 kts | 183° |
| 2026-04-23 13:38 | 49.51387 | 8.68893 | 33340 ft | 467 kts | 183° |
| 2026-04-23 13:39 | 49.44950 | 8.67593 | 33350 ft | 467 kts | 183° |
| 2026-04-23 13:39 | 49.38512 | 8.66289 | 33343 ft | 466 kts | 183° |
| 2026-04-23 13:40 | 49.32078 | 8.64990 | 33346 ft | 466 kts | 183° |
| 2026-04-23 13:40 | 49.25637 | 8.63693 | 33339 ft | 466 kts | 183° |
| 2026-04-23 13:41 | 49.19204 | 8.62401 | 33335 ft | 466 kts | 183° |
| 2026-04-23 13:41 | 49.12769 | 8.61112 | 33334 ft | 466 kts | 183° |
| 2026-04-23 13:42 | 49.06347 | 8.59829 | 33336 ft | 466 kts | 183° |
| 2026-04-23 13:42 | 48.99952 | 8.58541 | 33337 ft | 467 kts | 185° |
| 2026-04-23 13:43 | 48.93558 | 8.56401 | 33334 ft | 469 kts | 188° |
| 2026-04-23 13:43 | 48.87186 | 8.54325 | 33324 ft | 469 kts | 187° |
| 2026-04-23 13:44 | 48.80788 | 8.52275 | 33320 ft | 469 kts | 187° |
| 2026-04-23 13:44 | 48.74441 | 8.50248 | 33336 ft | 469 kts | 187° |
| 2026-04-23 13:45 | 48.68055 | 8.48213 | 33341 ft | 469 kts | 187° |
| 2026-04-23 13:45 | 48.61667 | 8.46183 | 33336 ft | 468 kts | 187° |
| 2026-04-23 13:46 | 48.55281 | 8.44159 | 33340 ft | 468 kts | 187° |
| 2026-04-23 13:46 | 48.48916 | 8.42147 | 33317 ft | 468 kts | 187° |
| 2026-04-23 13:47 | 48.42541 | 8.40137 | 33317 ft | 468 kts | 187° |
| 2026-04-23 13:47 | 48.36157 | 8.38129 | 33317 ft | 468 kts | 187° |
| 2026-04-23 13:48 | 48.29815 | 8.36139 | 33331 ft | 468 kts | 187° |
| 2026-04-23 13:48 | 48.23439 | 8.34144 | 33323 ft | 468 kts | 187° |
| 2026-04-23 13:49 | 48.17046 | 8.32522 | 33295 ft | 459 kts | 174° |
| 2026-04-23 13:49 | 48.10788 | 8.33720 | 33311 ft | 454 kts | 167° |
| 2026-04-23 13:50 | 48.04535 | 8.35159 | 33313 ft | 454 kts | 166° |
| 2026-04-23 13:50 | 47.98343 | 8.36646 | 33306 ft | 453 kts | 166° |
| 2026-04-23 13:51 | 47.92104 | 8.38148 | 33306 ft | 454 kts | 166° |
| 2026-04-23 13:51 | 47.85841 | 8.39654 | 33311 ft | 454 kts | 166° |
| 2026-04-23 13:52 | 47.79606 | 8.41150 | 33309 ft | 454 kts | 166° |
| 2026-04-23 13:52 | 47.73409 | 8.42632 | 33309 ft | 454 kts | 166° |
| 2026-04-23 13:53 | 47.67137 | 8.43890 | 33319 ft | 456 kts | 170° |
| 2026-04-23 13:53 | 47.60811 | 8.44793 | 33318 ft | 456 kts | 169° |
| 2026-04-23 13:54 | 47.54538 | 8.45734 | 33322 ft | 456 kts | 169° |
| 2026-04-23 13:54 | 47.48186 | 8.46689 | 33318 ft | 455 kts | 169° |
| 2026-04-23 13:55 | 47.41914 | 8.47631 | 33321 ft | 455 kts | 169° |
| 2026-04-23 13:55 | 47.35608 | 8.48575 | 33326 ft | 455 kts | 169° |
| 2026-04-23 13:56 | 47.29303 | 8.49518 | 33289 ft | 455 kts | 169° |
| 2026-04-23 13:56 | 47.22986 | 8.50445 | 33287 ft | 455 kts | 170° |
| 2026-04-23 13:57 | 47.16686 | 8.51361 | 33295 ft | 455 kts | 169° |
| 2026-04-23 13:57 | 47.10387 | 8.52276 | 33281 ft | 454 kts | 170° |
| 2026-04-23 13:58 | 47.04127 | 8.53183 | 33289 ft | 455 kts | 169° |
| 2026-04-23 13:58 | 46.97813 | 8.54096 | 33285 ft | 456 kts | 169° |
| 2026-04-23 13:59 | 46.91487 | 8.55007 | 33285 ft | 457 kts | 170° |
| 2026-04-23 13:59 | 46.85164 | 8.55916 | 33288 ft | 457 kts | 170° |
| 2026-04-23 14:00 | 46.79885 | 8.56673 | 33272 ft | 457 kts | 170° |
| 2026-04-23 14:00 | 46.72482 | 8.57733 | 33271 ft | 458 kts | 169° |
| 2026-04-23 14:01 | 46.66119 | 8.58640 | 33252 ft | 459 kts | 170° |
| 2026-04-23 14:01 | 46.59806 | 8.59539 | 33232 ft | 459 kts | 170° |
| 2026-04-23 14:02 | 46.53441 | 8.60442 | 33239 ft | 459 kts | 170° |
| 2026-04-23 14:02 | 46.47071 | 8.61344 | 33224 ft | 459 kts | 170° |
| 2026-04-23 14:03 | 46.40712 | 8.62244 | 33198 ft | 459 kts | 170° |
| 2026-04-23 14:03 | 46.34327 | 8.63143 | 32980 ft | 460 kts | 170° |
| 2026-04-23 14:03 | 46.31189 | 8.63586 | 32426 ft | 458 kts | 170° |
| 2026-04-23 14:04 | 46.28006 | 8.64033 | 31867 ft | 459 kts | 170° |
| 2026-04-23 14:04 | 46.24827 | 8.64480 | 31309 ft | 460 kts | 170° |
| 2026-04-23 14:04 | 46.21638 | 8.64927 | 30765 ft | 461 kts | 170° |
| 2026-04-23 14:04 | 46.18441 | 8.65374 | 30208 ft | 462 kts | 170° |
| 2026-04-23 14:05 | 46.15297 | 8.66181 | 29411 ft | 456 kts | 158° |
| 2026-04-23 14:05 | 46.12419 | 8.68036 | 28519 ft | 451 kts | 144° |
| 2026-04-23 14:05 | 46.09900 | 8.70675 | 27671 ft | 447 kts | 135° |
| 2026-04-23 14:05 | 46.07838 | 8.74009 | 26838 ft | 444 kts | 123° |
| 2026-04-23 14:06 | 46.06093 | 8.77687 | 26059 ft | 447 kts | 121° |
| 2026-04-23 14:06 | 46.04408 | 8.81481 | 25275 ft | 450 kts | 120° |
| 2026-04-23 14:06 | 46.02769 | 8.85320 | 24533 ft | 449 kts | 119° |
| 2026-04-23 14:06 | 46.01193 | 8.89071 | 23814 ft | 450 kts | 119° |
| 2026-04-23 14:07 | 45.99608 | 8.92883 | 22975 ft | 449 kts | 119° |
| 2026-04-23 14:07 | 45.96427 | 9.00571 | 21324 ft | 440 kts | 118° |
| 2026-04-23 14:07 | 45.94863 | 9.04346 | 20536 ft | 437 kts | 118° |
| 2026-04-23 14:08 | 45.93315 | 9.08081 | 19768 ft | 433 kts | 118° |
| 2026-04-23 14:08 | 45.91797 | 9.11736 | 19014 ft | 429 kts | 118° |
| 2026-04-23 14:08 | 45.90273 | 9.15404 | 18237 ft | 426 kts | 118° |
| 2026-04-23 14:08 | 45.88760 | 9.19036 | 17395 ft | 422 kts | 118° |
| 2026-04-23 14:09 | 45.87261 | 9.22634 | 16575 ft | 416 kts | 118° |
| 2026-04-23 14:09 | 45.85778 | 9.26185 | 15767 ft | 412 kts | 118° |
| 2026-04-23 14:09 | 45.84325 | 9.29661 | 15132 ft | 398 kts | 118° |
| 2026-04-23 14:09 | 45.82966 | 9.32911 | 15176 ft | 367 kts | 118° |
| 2026-04-23 14:10 | 45.81693 | 9.35950 | 15021 ft | 346 kts | 118° |
| 2026-04-23 14:10 | 45.80472 | 9.38861 | 14619 ft | 334 kts | 118° |
| 2026-04-23 14:10 | 45.79313 | 9.41623 | 14284 ft | 322 kts | 118° |
| 2026-04-23 14:10 | 45.78179 | 9.44321 | 13958 ft | 310 kts | 118° |
| 2026-04-23 14:11 | 45.77101 | 9.46887 | 13623 ft | 299 kts | 118° |
| 2026-04-23 14:11 | 45.76048 | 9.49390 | 13308 ft | 288 kts | 118° |
| 2026-04-23 14:11 | 45.75029 | 9.51808 | 13022 ft | 282 kts | 118° |
| 2026-04-23 14:11 | 45.74000 | 9.54250 | 12708 ft | 290 kts | 118° |
| 2026-04-23 14:12 | 45.72950 | 9.56738 | 12399 ft | 294 kts | 118° |
| 2026-04-23 14:12 | 45.71890 | 9.59249 | 12095 ft | 295 kts | 118° |
| 2026-04-23 14:12 | 45.70824 | 9.61766 | 11773 ft | 296 kts | 118° |
| 2026-04-23 14:12 | 45.69759 | 9.64281 | 11449 ft | 295 kts | 119° |
| 2026-04-23 14:13 | 45.68700 | 9.66780 | 11164 ft | 293 kts | 119° |
| 2026-04-23 14:13 | 45.67638 | 9.69248 | 10857 ft | 291 kts | 123° |
| 2026-04-23 14:13 | 45.66733 | 9.70668 | 10619 ft | 294 kts | 139° |
| 2026-04-23 14:13 | 45.64945 | 9.72078 | 10325 ft | 294 kts | 154° |
| 2026-04-23 14:14 | 45.63141 | 9.73237 | 10142 ft | 289 kts | 153° |
| 2026-04-23 14:14 | 45.61329 | 9.74392 | 9990 ft | 281 kts | 153° |
| 2026-04-23 14:14 | 45.59541 | 9.75519 | 9701 ft | 280 kts | 154° |
| 2026-04-23 14:14 | 45.57177 | 9.76994 | 9280 ft | 279 kts | 154° |
| 2026-04-23 14:15 | 45.55976 | 9.77742 | 9115 ft | 277 kts | 154° |
| 2026-04-23 14:15 | 45.54253 | 9.78810 | 8988 ft | 269 kts | 154° |
| 2026-04-23 14:15 | 45.52513 | 9.79695 | 8913 ft | 265 kts | 167° |
| 2026-04-23 14:15 | 45.50675 | 9.80102 | 8924 ft | 269 kts | 169° |
| 2026-04-23 14:16 | 45.48824 | 9.80509 | 8939 ft | 269 kts | 169° |
| 2026-04-23 14:16 | 45.46973 | 9.80918 | 8919 ft | 269 kts | 169° |
| 2026-04-23 14:16 | 45.45125 | 9.81328 | 8926 ft | 269 kts | 169° |
| 2026-04-23 14:16 | 45.43273 | 9.81740 | 8898 ft | 269 kts | 169° |
| 2026-04-23 14:17 | 45.41416 | 9.82152 | 8903 ft | 269 kts | 169° |
| 2026-04-23 14:17 | 45.39562 | 9.82564 | 8895 ft | 269 kts | 169° |
| 2026-04-23 14:17 | 45.37712 | 9.82974 | 8902 ft | 269 kts | 169° |
| 2026-04-23 14:17 | 45.35861 | 9.83387 | 8898 ft | 266 kts | 169° |
| 2026-04-23 14:18 | 45.34082 | 9.83799 | 8884 ft | 259 kts | 165° |
| 2026-04-23 14:18 | 45.32503 | 9.84880 | 8837 ft | 250 kts | 135° |
| 2026-04-23 14:18 | 45.31519 | 9.86840 | 8840 ft | 244 kts | 109° |
| 2026-04-23 14:18 | 45.30972 | 9.89138 | 8858 ft | 245 kts | 105° |
| 2026-04-23 14:19 | 45.30470 | 9.91459 | 8843 ft | 245 kts | 104° |
| 2026-04-23 14:19 | 45.30076 | 9.93807 | 8818 ft | 243 kts | 91° |
| 2026-04-23 14:19 | 45.30147 | 9.96190 | 8829 ft | 241 kts | 84° |
| 2026-04-23 14:19 | 45.30271 | 9.98572 | 8818 ft | 242 kts | 83° |
| 2026-04-23 14:20 | 45.30404 | 10.00955 | 8807 ft | 242 kts | 83° |
| 2026-04-23 14:20 | 45.30589 | 10.03332 | 8794 ft | 241 kts | 73° |
| 2026-04-23 14:20 | 45.31198 | 10.05493 | 8779 ft | 239 kts | 64° |
| 2026-04-23 14:20 | 45.31892 | 10.07675 | 8755 ft | 240 kts | 64° |
| 2026-04-23 14:21 | 45.32573 | 10.09809 | 8735 ft | 240 kts | 64° |
| 2026-04-23 14:21 | 45.33281 | 10.11951 | 8703 ft | 239 kts | 59° |
| 2026-04-23 14:21 | 45.34332 | 10.13760 | 8643 ft | 238 kts | 45° |
| 2026-04-23 14:21 | 45.35493 | 10.15446 | 8588 ft | 238 kts | 45° |
| 2026-04-23 14:22 | 45.36653 | 10.17127 | 8542 ft | 238 kts | 45° |
| 2026-04-23 14:22 | 45.37815 | 10.18799 | 8475 ft | 238 kts | 43° |
| 2026-04-23 14:22 | 45.39184 | 10.20096 | 8342 ft | 236 kts | 26° |
| 2026-04-23 14:22 | 45.40668 | 10.21106 | 8228 ft | 237 kts | 26° |
| 2026-04-23 14:23 | 45.42154 | 10.22116 | 8121 ft | 237 kts | 26° |
| 2026-04-23 14:23 | 45.43640 | 10.23120 | 8020 ft | 236 kts | 25° |
| 2026-04-23 14:23 | 45.45147 | 10.24034 | 7846 ft | 236 kts | 13° |
| 2026-04-23 14:23 | 45.46755 | 10.24061 | 7641 ft | 237 kts | 347° |
| 2026-04-23 14:24 | 45.48228 | 10.23010 | 7444 ft | 241 kts | 321° |
| 2026-04-23 14:24 | 45.49240 | 10.21113 | 7229 ft | 244 kts | 296° |
| 2026-04-23 14:24 | 45.49615 | 10.18750 | 7020 ft | 246 kts | 278° |
| 2026-04-23 14:24 | 45.50036 | 10.16440 | 6726 ft | 239 kts | 305° |
| 2026-04-23 14:25 | 45.51138 | 10.14734 | 6519 ft | 232 kts | 317° |
| 2026-04-23 14:25 | 45.52293 | 10.13115 | 6348 ft | 233 kts | 316° |
| 2026-04-23 14:25 | 45.53444 | 10.11493 | 6129 ft | 231 kts | 316° |
| 2026-04-23 14:25 | 45.54573 | 10.09904 | 5923 ft | 228 kts | 316° |
| 2026-04-23 14:26 | 45.55701 | 10.08324 | 5699 ft | 225 kts | 316° |
| 2026-04-23 14:26 | 45.56808 | 10.06776 | 5533 ft | 221 kts | 316° |
| 2026-04-23 14:26 | 45.57872 | 10.05281 | 5333 ft | 218 kts | 316° |
| 2026-04-23 14:26 | 45.58971 | 10.03745 | 5148 ft | 214 kts | 316° |
| 2026-04-23 14:27 | 45.60042 | 10.02244 | 4974 ft | 217 kts | 315° |
| 2026-04-23 14:27 | 45.61032 | 10.00616 | 4707 ft | 219 kts | 297° |
| 2026-04-23 14:27 | 45.61551 | 9.98572 | 4465 ft | 219 kts | 287° |
| 2026-04-23 14:27 | 45.61997 | 9.96473 | 4253 ft | 224 kts | 286° |
| 2026-04-23 14:28 | 45.62415 | 9.94306 | 3927 ft | 229 kts | 284° |
| 2026-04-23 14:28 | 45.62822 | 9.92087 | 3629 ft | 231 kts | 283° |
| 2026-04-23 14:28 | 45.63240 | 9.89857 | 3302 ft | 232 kts | 284° |
| 2026-04-23 14:28 | 45.63653 | 9.87636 | 2993 ft | 228 kts | 284° |
| 2026-04-23 14:29 | 45.64039 | 9.85553 | 2685 ft | 207 kts | 284° |
| 2026-04-23 14:29 | 45.64375 | 9.83702 | 2420 ft | 185 kts | 284° |
| 2026-04-23 14:29 | 45.64685 | 9.82066 | 2208 ft | 162 kts | 283° |
| 2026-04-23 14:29 | 45.64766 | 9.81636 | 2169 ft | 155 kts | 283° |
| 2026-04-23 14:30 | 45.64943 | 9.80667 | 1999 ft | 146 kts | 283° |
| 2026-04-23 14:30 | 45.65199 | 9.79280 | 1802 ft | 144 kts | 283° |
| 2026-04-23 14:30 | 45.65453 | 9.77904 | 1581 ft | 144 kts | 283° |
| 2026-04-23 14:30 | 45.65704 | 9.76493 | 1398 ft | 153 kts | 283° |
| 2026-04-23 14:31 | 45.65968 | 9.75072 | 1194 ft | 153 kts | 284° |
| 2026-04-23 14:31 | 45.66243 | 9.73618 | 1018 ft | 153 kts | 282° |
| 2026-04-23 14:31 | 45.66514 | 9.72160 | 813 ft | 144 kts | 282° |